Almyros — 9HA2510 — position and weather

sailwx.info

Track history (hours):
 
Tides and Currents Weather Stations Pressure Air Temp Water Temp Dewpoint Dewpoint Depression Visibility Wind Speed Wind Dir Waves Ship Positions

Almyros

Last reported at 2015-Jul-02 05:31 UTC. Time now 2015-Jul-06 00:57 UTC.
Position N 32°02' E 119°57'.

Length 189 m; draft 10.5 m.

Type: Cargo ship. MMSI: 248779000.

Date/timePositionNaut miles runAvg speedWind from/ knotsBaromVisibWave heightAir tempDewpointWater temp
2015-Jul-02 05:31N 32°02' E 119°57'8 7.6
2015-Jul-02 04:29N 31°58' E 120°04'7 7.7
2015-Jul-02 03:33N 31°56' E 120°12'9 7.8
2015-Jul-02 02:25N 31°58' E 120°23'5 5.7
2015-Jul-02 01:33N 32°02' E 120°27'8 8.0
2015-Jul-02 00:32N 32°00' E 120°36'8 8.0
2015-Jul-01 23:33N 32°01' E 120°45'8 8.5
2015-Jul-01 22:33N 31°55' E 120°53'9 9.2
2015-Jul-01 21:32N 31°47' E 120°58'9 9.5
2015-Jul-01 20:33N 31°43' E 121°08'1110.8
2015-Jul-01 19:33N 31°36' E 121°18'1211.6
2015-Jul-01 18:33N 31°28' E 121°28'9 8.7
2015-Jul-01 17:33N 31°23' E 121°36'1010.4
2015-Jul-01 16:33N 31°18' E 121°47'1413.8
2015-Jul-01 15:33N 31°14' E 122°02'1413.5
2015-Jul-01 14:33N 31°08' E 122°16'1211.8
2015-Jul-01 13:33N 31°07' E 122°30'84 2.9
2015-Jun-30 08:32N 29°43' E 122°28'1110.8
2015-Jun-30 07:30N 29°47' E 122°16'1112.1
2015-Jun-30 06:33N 29°55' E 122°07'10 9.4
2015-Jun-30 05:31N 30°02' E 121°59'0 0.2
2015-Jun-30 04:30N 30°02' E 121°59'0 0.0
2015-Jun-30 03:24N 30°02' E 121°59'0 0.0
2015-Jun-30 02:24N 30°02' E 121°59'0 0.0
2015-Jun-30 01:30N 30°02' E 121°59'0 0.0
2015-Jun-30 00:30N 30°02' E 121°59'0 0.0
2015-Jun-29 23:30N 30°02' E 121°59'0 0.0
2015-Jun-29 22:30N 30°02' E 121°59'0 0.0
2015-Jun-29 21:24N 30°02' E 121°59'0 0.0
2015-Jun-29 20:30N 30°02' E 121°59'0 0.0
2015-Jun-29 19:30N 30°02' E 121°59'0 0.0
2015-Jun-29 18:30N 30°02' E 121°59'0 0.0
2015-Jun-29 17:30N 30°02' E 121°59'0 0.0
2015-Jun-29 16:30N 30°02' E 121°59'0 0.0
2015-Jun-29 15:30N 30°02' E 121°59'0 0.0
2015-Jun-29 14:30N 30°02' E 121°59'0 0.0
2015-Jun-29 13:30N 30°02' E 121°59'0 0.0
2015-Jun-29 12:24N 30°02' E 121°59'0 0.0
2015-Jun-29 11:24N 30°02' E 121°59'0 0.0
2015-Jun-29 10:30N 30°02' E 121°59'0 0.0
2015-Jun-29 09:30N 30°02' E 121°59'0 0.0
2015-Jun-29 08:30N 30°02' E 121°59'0 0.0
2015-Jun-29 07:30N 30°02' E 121°59'0 0.0
2015-Jun-29 06:30N 30°02' E 121°59'0 0.0
2015-Jun-29 05:30N 30°02' E 121°59'0 0.0
2015-Jun-29 04:30N 30°02' E 121°59'0 0.0
2015-Jun-29 03:30N 30°02' E 121°59'0 0.0
2015-Jun-29 02:30N 30°02' E 121°59'0 0.0
2015-Jun-29 01:30N 30°02' E 121°59'0 0.0
2015-Jun-29 00:30N 30°02' E 121°59'0 0.0
2015-Jun-28 23:30N 30°02' E 121°59'0 0.0
2015-Jun-28 22:30N 30°02' E 121°59'0 0.0
2015-Jun-28 21:30N 30°02' E 121°59'0 0.0
2015-Jun-28 20:30N 30°02' E 121°59'0 0.0
2015-Jun-28 19:30N 30°02' E 121°59'0 0.0
2015-Jun-28 18:30N 30°02' E 121°59'0 0.5
2015-Jun-28 17:33N 30°02' E 121°59'2 2.1
2015-Jun-28 16:29N 30°01' E 121°56'0 0.1
2015-Jun-28 15:29N 30°01' E 121°56'0 0.1
2015-Jun-28 13:29N 30°01' E 121°56'0 0.1
2015-Jun-28 12:29N 30°01' E 121°56'0 0.0
2015-Jun-28 11:23N 30°01' E 121°56'0 0.1
2015-Jun-28 10:17N 30°02' E 121°56'0 0.1
2015-Jun-28 09:23N 30°01' E 121°56'0 0.2
2015-Jun-28 08:23N 30°01' E 121°56'0 0.2
2015-Jun-28 07:29N 30°01' E 121°56'0 0.0
2015-Jun-28 06:33N 30°01' E 121°56'4 3.9
2015-Jun-28 05:33N 29°58' E 121°59'9 8.8
2015-Jun-28 04:33N 29°56' E 122°09'9 8.8
2015-Jun-28 03:33N 29°48' E 122°15'8 7.9
2015-Jun-28 02:33N 29°44' E 122°23'1 0.2
2015-Jun-27 21:31N 29°44' E 122°24'0 0.1
2015-Jun-27 18:30N 29°44' E 122°24'0 0.1
2015-Jun-27 17:24N 29°44' E 122°24'0 0.0
2015-Jun-27 13:30N 29°44' E 122°24'0 0.0
2015-Jun-27 06:31N 29°44' E 122°24'0 0.1
2015-Jun-27 04:30N 29°44' E 122°24'0 0.0
2015-Jun-27 03:24N 29°44' E 122°24'0 0.0
2015-Jun-27 00:24N 29°44' E 122°24'0 0.1
2015-Jun-26 23:24N 29°45' E 122°24'0 0.1
2015-Jun-26 22:24N 29°45' E 122°24'0 0.1
2015-Jun-26 19:31N 29°44' E 122°24'0 0.1
2015-Jun-26 16:07N 29°44' E 122°24'0 0.0
2015-Jun-26 14:31N 29°44' E 122°24'0 0.1
2015-Jun-26 12:06N 29°44' E 122°24'0 0.3
2015-Jun-26 11:33N 29°45' E 122°24'1 1.4
2015-Jun-26 10:33N 29°44' E 122°22'9 8.7
2015-Jun-26 09:33N 29°41' E 122°31'  
Track history (hours):
 
Tides and Currents Weather Stations Pressure Air Temp Water Temp Dewpoint Dewpoint Depression Visibility Wind Speed Wind Dir Waves Ship Positions

Almyros

Last reported at 2015-Jul-02 05:31 UTC. Time now 2015-Jul-06 00:57 UTC.
Position N 32°02' E 119°57'.

Length 189 m; draft 10.5 m.

Type: Cargo ship. MMSI: 248779000.

Date/timePositionNaut miles runAvg speedWind from/ knotsBaromVisibWave heightAir tempDewpointWater temp
2015-Jul-02 05:31N 32°02' E 119°57'8 7.6
2015-Jul-02 04:29N 31°58' E 120°04'7 7.7
2015-Jul-02 03:33N 31°56' E 120°12'9 7.8
2015-Jul-02 02:25N 31°58' E 120°23'5 5.7
2015-Jul-02 01:33N 32°02' E 120°27'8 8.0
2015-Jul-02 00:32N 32°00' E 120°36'8 8.0
2015-Jul-01 23:33N 32°01' E 120°45'8 8.5
2015-Jul-01 22:33N 31°55' E 120°53'9 9.2
2015-Jul-01 21:32N 31°47' E 120°58'9 9.5
2015-Jul-01 20:33N 31°43' E 121°08'1110.8
2015-Jul-01 19:33N 31°36' E 121°18'1211.6
2015-Jul-01 18:33N 31°28' E 121°28'9 8.7
2015-Jul-01 17:33N 31°23' E 121°36'1010.4
2015-Jul-01 16:33N 31°18' E 121°47'1413.8
2015-Jul-01 15:33N 31°14' E 122°02'1413.5
2015-Jul-01 14:33N 31°08' E 122°16'1211.8
2015-Jul-01 13:33N 31°07' E 122°30'84 2.9
2015-Jun-30 08:32N 29°43' E 122°28'1110.8
2015-Jun-30 07:30N 29°47' E 122°16'1112.1
2015-Jun-30 06:33N 29°55' E 122°07'10 9.4
2015-Jun-30 05:31N 30°02' E 121°59'0 0.2
2015-Jun-30 04:30N 30°02' E 121°59'0 0.0
2015-Jun-30 03:24N 30°02' E 121°59'0 0.0
2015-Jun-30 02:24N 30°02' E 121°59'0 0.0
2015-Jun-30 01:30N 30°02' E 121°59'0 0.0
2015-Jun-30 00:30N 30°02' E 121°59'0 0.0
2015-Jun-29 23:30N 30°02' E 121°59'0 0.0
2015-Jun-29 22:30N 30°02' E 121°59'0 0.0
2015-Jun-29 21:24N 30°02' E 121°59'0 0.0
2015-Jun-29 20:30N 30°02' E 121°59'0 0.0
2015-Jun-29 19:30N 30°02' E 121°59'0 0.0
2015-Jun-29 18:30N 30°02' E 121°59'0 0.0
2015-Jun-29 17:30N 30°02' E 121°59'0 0.0
2015-Jun-29 16:30N 30°02' E 121°59'0 0.0
2015-Jun-29 15:30N 30°02' E 121°59'0 0.0
2015-Jun-29 14:30N 30°02' E 121°59'0 0.0
2015-Jun-29 13:30N 30°02' E 121°59'0 0.0
2015-Jun-29 12:24N 30°02' E 121°59'0 0.0
2015-Jun-29 11:24N 30°02' E 121°59'0 0.0
2015-Jun-29 10:30N 30°02' E 121°59'0 0.0
2015-Jun-29 09:30N 30°02' E 121°59'0 0.0
2015-Jun-29 08:30N 30°02' E 121°59'0 0.0
2015-Jun-29 07:30N 30°02' E 121°59'0 0.0
2015-Jun-29 06:30N 30°02' E 121°59'0 0.0
2015-Jun-29 05:30N 30°02' E 121°59'0 0.0
2015-Jun-29 04:30N 30°02' E 121°59'0 0.0
2015-Jun-29 03:30N 30°02' E 121°59'0 0.0
2015-Jun-29 02:30N 30°02' E 121°59'0 0.0
2015-Jun-29 01:30N 30°02' E 121°59'0 0.0
2015-Jun-29 00:30N 30°02' E 121°59'0 0.0
2015-Jun-28 23:30N 30°02' E 121°59'0 0.0
2015-Jun-28 22:30N 30°02' E 121°59'0 0.0
2015-Jun-28 21:30N 30°02' E 121°59'0 0.0
2015-Jun-28 20:30N 30°02' E 121°59'0 0.0
2015-Jun-28 19:30N 30°02' E 121°59'0 0.0
2015-Jun-28 18:30N 30°02' E 121°59'0 0.5
2015-Jun-28 17:33N 30°02' E 121°59'2 2.1
2015-Jun-28 16:29N 30°01' E 121°56'0 0.1
2015-Jun-28 15:29N 30°01' E 121°56'0 0.1
2015-Jun-28 13:29N 30°01' E 121°56'0 0.1
2015-Jun-28 12:29N 30°01' E 121°56'0 0.0
2015-Jun-28 11:23N 30°01' E 121°56'0 0.1
2015-Jun-28 10:17N 30°02' E 121°56'0 0.1
2015-Jun-28 09:23N 30°01' E 121°56'0 0.2
2015-Jun-28 08:23N 30°01' E 121°56'0 0.2
2015-Jun-28 07:29N 30°01' E 121°56'0 0.0
2015-Jun-28 06:33N 30°01' E 121°56'4 3.9
2015-Jun-28 05:33N 29°58' E 121°59'9 8.8
2015-Jun-28 04:33N 29°56' E 122°09'9 8.8
2015-Jun-28 03:33N 29°48' E 122°15'8 7.9
2015-Jun-28 02:33N 29°44' E 122°23'1 0.2
2015-Jun-27 21:31N 29°44' E 122°24'0 0.1
2015-Jun-27 18:30N 29°44' E 122°24'0 0.1
2015-Jun-27 17:24N 29°44' E 122°24'0 0.0
2015-Jun-27 13:30N 29°44' E 122°24'0 0.0
2015-Jun-27 06:31N 29°44' E 122°24'0 0.1
2015-Jun-27 04:30N 29°44' E 122°24'0 0.0
2015-Jun-27 03:24N 29°44' E 122°24'0 0.0
2015-Jun-27 00:24N 29°44' E 122°24'0 0.1
2015-Jun-26 23:24N 29°45' E 122°24'0 0.1
2015-Jun-26 22:24N 29°45' E 122°24'0 0.1
2015-Jun-26 19:31N 29°44' E 122°24'0 0.1
2015-Jun-26 16:07N 29°44' E 122°24'0 0.0
2015-Jun-26 14:31N 29°44' E 122°24'0 0.1
2015-Jun-26 12:06N 29°44' E 122°24'0 0.3
2015-Jun-26 11:33N 29°45' E 122°24'1 1.4
2015-Jun-26 10:33N 29°44' E 122°22'9 8.7
2015-Jun-26 09:33N 29°41' E 122°31'  

Dump ship's entire track history